createdAt,value
2023-05-07T00:00:23.015Z,9.00
2023-05-07T00:03:16.791Z,8.97
2023-05-07T00:05:50.878Z,8.95
2023-05-07T00:08:24.885Z,8.95
2023-05-07T00:10:58.881Z,8.93
2023-05-07T00:13:36.783Z,8.90
2023-05-07T00:16:10.972Z,8.87
2023-05-07T00:18:44.319Z,8.87
2023-05-07T00:21:17.926Z,8.85
2023-05-07T00:23:51.759Z,8.86
2023-05-07T00:26:25.280Z,8.90
2023-05-07T00:28:58.874Z,8.95
2023-05-07T00:31:32.512Z,8.99
2023-05-07T00:34:05.845Z,9.01
2023-05-07T00:36:39.427Z,9.00
2023-05-07T00:39:13.039Z,8.99
2023-05-07T00:41:46.316Z,8.97
2023-05-07T00:44:20.567Z,8.98
2023-05-07T00:46:54.008Z,8.95
2023-05-07T00:49:34.445Z,8.94
2023-05-07T00:52:09.484Z,8.95
2023-05-07T00:54:43.924Z,8.97
2023-05-07T00:57:17.947Z,8.98
2023-05-07T00:59:51.846Z,8.96
2023-05-07T01:02:25.255Z,8.93
2023-05-07T01:04:59.575Z,8.92
2023-05-07T01:07:34.714Z,8.92
2023-05-07T01:10:10.449Z,8.91
2023-05-07T01:12:44.923Z,8.86
2023-05-07T01:15:19.105Z,8.84
2023-05-07T01:17:53.065Z,8.82
2023-05-07T01:20:32.966Z,8.82
2023-05-07T01:23:09.598Z,8.83
2023-05-07T01:25:42.757Z,8.84
2023-05-07T01:28:17.172Z,8.84
2023-05-07T01:30:57.031Z,8.81
2023-05-07T01:33:34.307Z,8.75
2023-05-07T01:36:10.239Z,8.70
2023-05-07T01:38:44.891Z,8.73
2023-05-07T01:41:18.633Z,8.73
2023-05-07T01:43:53.200Z,8.75
2023-05-07T01:46:27.485Z,8.72
2023-05-07T01:49:01.328Z,8.66
2023-05-07T01:51:36.116Z,8.59
2023-05-07T01:54:09.754Z,8.55
2023-05-07T01:56:44.762Z,8.52
2023-05-07T01:59:18.883Z,8.53
2023-05-07T02:01:52.409Z,8.56
2023-05-07T02:04:26.155Z,8.54
2023-05-07T02:07:00.710Z,8.51
2023-05-07T02:09:34.735Z,8.50
2023-05-07T02:12:09.185Z,8.52
2023-05-07T02:14:42.758Z,8.56
2023-05-07T02:17:16.525Z,8.57
2023-05-07T02:19:50.123Z,8.55
2023-05-07T02:22:23.436Z,8.53
2023-05-07T02:24:57.278Z,8.51
2023-05-07T02:27:30.849Z,8.50
2023-05-07T02:30:04.442Z,8.50
2023-05-07T02:32:38.394Z,8.50
2023-05-07T02:35:12.895Z,8.48
2023-05-07T02:37:46.871Z,8.47
2023-05-07T02:40:21.594Z,8.44
2023-05-07T02:42:55.342Z,8.43
2023-05-07T02:45:29.443Z,8.44
2023-05-07T02:48:02.837Z,8.44
2023-05-07T02:50:36.794Z,8.43
2023-05-07T02:53:10.568Z,8.40
2023-05-07T02:55:44.334Z,8.42
2023-05-07T02:58:18.072Z,8.44
2023-05-07T03:00:51.583Z,8.48
2023-05-07T03:03:47.429Z,8.51
2023-05-07T03:06:21.236Z,8.50
2023-05-07T03:08:54.908Z,8.47
2023-05-07T03:11:28.380Z,8.42
2023-05-07T03:14:02.140Z,8.40
2023-05-07T03:16:35.722Z,8.41
2023-05-07T03:19:09.226Z,8.43
2023-05-07T03:21:42.730Z,8.45
2023-05-07T03:24:16.728Z,8.45
2023-05-07T03:26:50.289Z,8.45
2023-05-07T03:29:23.807Z,8.45
2023-05-07T03:31:57.484Z,8.48
2023-05-07T03:34:31.341Z,8.48
2023-05-07T03:37:05.446Z,8.51
2023-05-07T03:39:38.958Z,8.52
2023-05-07T03:42:12.846Z,8.57
2023-05-07T03:44:49.852Z,8.58
2023-05-07T03:47:24.025Z,8.54
2023-05-07T03:49:58.258Z,8.50
2023-05-07T03:52:32.156Z,8.48
2023-05-07T03:55:07.374Z,8.49
2023-05-07T03:57:41.771Z,8.55
2023-05-07T04:00:17.744Z,8.57
2023-05-07T04:02:54.753Z,8.58
2023-05-07T04:05:31.707Z,8.59
2023-05-07T04:08:09.029Z,8.60
2023-05-07T04:10:46.417Z,8.64
2023-05-07T04:13:20.296Z,8.68
2023-05-07T04:15:54.008Z,8.72
2023-05-07T04:18:28.213Z,8.71
2023-05-07T04:21:02.112Z,8.69
2023-05-07T04:23:35.930Z,8.68
2023-05-07T04:26:10.252Z,8.69
2023-05-07T04:28:46.964Z,8.72
2023-05-07T04:31:22.872Z,8.76
2023-05-07T04:33:58.734Z,8.76
2023-05-07T04:36:34.487Z,8.75
2023-05-07T04:39:12.016Z,8.77
2023-05-07T04:41:46.567Z,8.76
2023-05-07T04:44:20.403Z,8.78
2023-05-07T04:46:56.149Z,8.82
2023-05-07T04:49:29.581Z,8.83
2023-05-07T04:52:04.732Z,8.83
2023-05-07T04:54:39.218Z,8.86
2023-05-07T04:57:13.017Z,8.91
2023-05-07T04:59:47.137Z,8.94
2023-05-07T05:02:21.040Z,9.00
2023-05-07T05:04:55.308Z,9.03
2023-05-07T05:07:30.284Z,9.08
2023-05-07T05:10:04.498Z,9.12
2023-05-07T05:12:38.240Z,9.16
2023-05-07T05:15:13.655Z,9.21
2023-05-07T05:17:47.471Z,9.29
2023-05-07T05:20:21.707Z,9.36
2023-05-07T05:22:55.460Z,9.46
2023-05-07T05:25:30.053Z,9.56
2023-05-07T05:28:04.392Z,9.68
2023-05-07T05:30:39.030Z,9.78
2023-05-07T05:33:12.832Z,9.91
2023-05-07T05:35:46.334Z,10.05
2023-05-07T05:38:20.570Z,10.21
2023-05-07T05:40:56.539Z,10.45
2023-05-07T05:43:31.328Z,10.62
2023-05-07T05:46:06.031Z,10.61
2023-05-07T05:48:39.708Z,10.61
2023-05-07T05:51:13.667Z,10.59
2023-05-07T05:53:47.134Z,10.53
2023-05-07T05:56:22.577Z,10.53
2023-05-07T05:58:56.365Z,10.53
2023-05-07T06:01:30.319Z,10.55
2023-05-07T06:04:04.404Z,10.57
2023-05-07T06:06:38.005Z,10.60
2023-05-07T06:09:11.927Z,10.62
2023-05-07T06:11:48.920Z,10.69
2023-05-07T06:14:22.821Z,10.72
2023-05-07T06:16:56.908Z,10.72
2023-05-07T06:19:31.174Z,10.78
2023-05-07T06:22:05.371Z,10.86
2023-05-07T06:24:39.235Z,10.99
2023-05-07T06:27:13.613Z,11.05
2023-05-07T06:29:47.602Z,11.12
2023-05-07T06:32:23.583Z,11.20
2023-05-07T06:34:57.444Z,11.28
2023-05-07T06:37:31.449Z,11.35
2023-05-07T06:40:11.847Z,11.41
2023-05-07T06:42:46.273Z,11.42
2023-05-07T06:45:34.746Z,11.46
2023-05-07T06:48:09.444Z,11.54
2023-05-07T06:50:51.387Z,11.60
2023-05-07T06:53:25.300Z,11.78
2023-05-07T06:55:59.417Z,11.95
2023-05-07T06:58:33.385Z,12.07
2023-05-07T07:01:07.950Z,12.08
2023-05-07T07:03:42.383Z,12.01
2023-05-07T07:06:15.803Z,12.08
2023-05-07T07:08:49.992Z,12.26
2023-05-07T07:11:24.185Z,12.44
2023-05-07T07:13:58.055Z,12.63
2023-05-07T07:16:31.513Z,12.83
2023-05-07T07:19:05.773Z,13.02
2023-05-07T07:21:39.606Z,13.35
2023-05-07T07:24:13.080Z,13.49
2023-05-07T07:26:47.014Z,13.52
2023-05-07T07:29:21.336Z,13.63
2023-05-07T07:31:55.453Z,13.86
2023-05-07T07:34:29.019Z,13.86
2023-05-07T07:37:06.738Z,13.79
2023-05-07T07:39:40.859Z,13.71
2023-05-07T07:42:15.068Z,13.80
2023-05-07T07:44:48.535Z,13.84
2023-05-07T07:47:22.454Z,13.89
2023-05-07T07:49:56.066Z,13.91
2023-05-07T07:52:30.291Z,14.03
2023-05-07T07:55:04.610Z,13.92
2023-05-07T07:57:38.193Z,13.80
2023-05-07T08:00:13.931Z,13.90
2023-05-07T08:02:51.521Z,13.97
2023-05-07T08:05:30.790Z,14.06
2023-05-07T08:08:05.807Z,14.08
2023-05-07T08:10:41.114Z,13.97
2023-05-07T08:13:20.173Z,13.83
2023-05-07T08:15:54.093Z,13.74
2023-05-07T08:18:30.662Z,13.84
2023-05-07T08:21:05.562Z,13.89
2023-05-07T08:23:39.526Z,13.90
2023-05-07T08:26:14.234Z,14.08
2023-05-07T08:28:48.310Z,14.37
2023-05-07T08:31:22.198Z,14.93
2023-05-07T08:33:56.395Z,15.43
2023-05-07T08:36:30.260Z,15.56
2023-05-07T08:39:03.997Z,15.88
2023-05-07T08:41:38.865Z,17.41
2023-05-07T08:44:16.554Z,19.46
2023-05-07T08:46:55.465Z,20.00
2023-05-07T08:49:30.151Z,19.79
2023-05-07T08:52:04.185Z,19.81
2023-05-07T08:54:39.702Z,19.96
2023-05-07T08:57:14.477Z,19.75
2023-05-07T08:59:48.432Z,19.29
2023-05-07T09:02:22.807Z,19.22
2023-05-07T09:04:57.048Z,19.08
2023-05-07T09:07:31.241Z,18.81
2023-05-07T09:10:08.956Z,18.46
2023-05-07T09:12:43.191Z,17.87
2023-05-07T09:15:17.810Z,17.07
2023-05-07T09:17:52.149Z,16.42
2023-05-07T09:20:26.272Z,16.21
2023-05-07T09:23:01.594Z,16.24
2023-05-07T09:25:37.678Z,16.31
2023-05-07T09:28:17.075Z,16.42
2023-05-07T09:30:51.993Z,16.68
2023-05-07T09:33:29.856Z,16.94
2023-05-07T09:36:07.180Z,16.85
2023-05-07T09:38:42.794Z,16.58
2023-05-07T09:41:17.246Z,16.34
2023-05-07T09:44:01.726Z,16.45
2023-05-07T09:46:39.131Z,16.94
2023-05-07T09:49:26.288Z,18.26
2023-05-07T09:52:10.244Z,18.76
2023-05-07T09:54:48.544Z,18.62
2023-05-07T09:57:25.454Z,19.00
2023-05-07T10:00:05.769Z,18.71
2023-05-07T10:02:49.805Z,18.15
2023-05-07T10:05:26.624Z,17.70
2023-05-07T10:08:04.563Z,17.44
2023-05-07T10:10:40.241Z,17.18
2023-05-07T10:13:16.638Z,16.84
2023-05-07T10:15:54.697Z,16.61
2023-05-07T10:18:34.450Z,16.67
2023-05-07T10:21:21.261Z,16.88
2023-05-07T10:24:03.017Z,16.65
2023-05-07T10:26:39.125Z,16.18
2023-05-07T10:29:25.501Z,15.84
2023-05-07T10:32:10.397Z,15.67
2023-05-07T10:34:48.099Z,15.58
2023-05-07T10:37:23.683Z,15.67
2023-05-07T10:39:58.988Z,15.91
2023-05-07T10:42:33.148Z,16.07
2023-05-07T10:45:18.148Z,16.02
2023-05-07T10:51:24.549Z,15.53
2023-05-07T10:54:29.910Z,15.14
2023-05-07T10:57:38.381Z,15.17
2023-05-07T11:00:43.245Z,15.42
2023-05-07T11:03:20.245Z,15.57
2023-05-07T11:06:19.590Z,15.59
2023-05-07T11:09:08.799Z,15.44
2023-05-07T11:11:53.262Z,15.31
2023-05-07T11:14:53.109Z,15.14
2023-05-07T11:17:36.421Z,14.86
2023-05-07T11:20:14.100Z,14.71
2023-05-07T11:22:58.367Z,14.69
2023-05-07T11:25:42.479Z,15.33
2023-05-07T11:28:25.249Z,16.38
2023-05-07T11:31:09.268Z,17.45
2023-05-07T11:33:43.520Z,18.33
2023-05-07T11:36:20.624Z,18.33
2023-05-07T11:38:54.736Z,18.03
2023-05-07T11:41:38.819Z,17.83
2023-05-07T11:44:12.486Z,17.80
2023-05-07T11:46:47.920Z,17.68
2023-05-07T11:49:21.819Z,17.70
2023-05-07T11:51:56.339Z,17.88
2023-05-07T11:54:37.592Z,17.98
2023-05-07T11:57:17.372Z,18.05
2023-05-07T11:59:55.568Z,18.23
2023-05-07T12:02:29.597Z,18.49
2023-05-07T12:05:05.415Z,18.88
2023-05-07T12:07:39.457Z,19.10
2023-05-07T12:10:16.209Z,19.23
2023-05-07T12:12:51.736Z,19.54
2023-05-07T12:15:29.375Z,19.77
2023-05-07T12:18:04.009Z,19.49
2023-05-07T12:20:38.823Z,18.97
2023-05-07T12:23:13.170Z,18.65
2023-05-07T12:25:49.199Z,18.27
2023-05-07T12:28:23.633Z,17.91
2023-05-07T12:30:58.077Z,17.68
2023-05-07T12:33:33.047Z,17.46
2023-05-07T12:36:09.786Z,17.25
2023-05-07T12:38:43.724Z,17.34
2023-05-07T12:41:18.559Z,17.40
2023-05-07T12:43:52.444Z,17.32
2023-05-07T12:46:26.116Z,17.14
2023-05-07T12:48:59.659Z,16.96
2023-05-07T12:51:33.983Z,16.89
2023-05-07T12:54:07.904Z,17.33
2023-05-07T12:56:42.475Z,17.79
2023-05-07T12:59:16.216Z,17.75
2023-05-07T13:01:50.694Z,17.63
2023-05-07T13:04:27.293Z,17.68
2023-05-07T13:07:01.497Z,18.28
2023-05-07T13:09:35.502Z,19.09
2023-05-07T13:12:09.807Z,18.96
2023-05-07T13:14:43.486Z,18.49
2023-05-07T13:17:17.176Z,18.25
2023-05-07T13:19:51.412Z,18.04
2023-05-07T13:22:25.053Z,17.73
2023-05-07T13:24:58.765Z,17.64
2023-05-07T13:27:32.762Z,17.45
2023-05-07T13:30:06.790Z,17.25
2023-05-07T13:32:40.629Z,17.19
2023-05-07T13:35:14.462Z,17.14
2023-05-07T13:37:49.604Z,16.97
2023-05-07T13:40:23.261Z,16.85
2023-05-07T13:42:59.842Z,16.64
2023-05-07T13:45:33.472Z,16.40
2023-05-07T13:48:07.806Z,16.27
2023-05-07T13:50:41.351Z,16.21
2023-05-07T13:53:17.097Z,16.28
2023-05-07T13:55:51.142Z,16.28
2023-05-07T13:58:25.910Z,16.23
2023-05-07T14:00:59.500Z,16.26
2023-05-07T14:03:34.384Z,16.08
2023-05-07T14:06:08.947Z,15.93
2023-05-07T14:08:42.605Z,15.99
2023-05-07T14:11:16.121Z,16.03
2023-05-07T14:13:49.846Z,15.96
2023-05-07T14:16:23.552Z,15.86
2023-05-07T14:18:58.469Z,15.90
2023-05-07T14:21:33.418Z,15.94
2023-05-07T14:24:08.626Z,15.83
2023-05-07T14:26:42.210Z,15.81
2023-05-07T14:29:17.041Z,15.77
2023-05-07T14:31:50.555Z,15.70
2023-05-07T14:34:24.054Z,15.78
2023-05-07T14:36:58.062Z,15.82
2023-05-07T14:39:32.304Z,15.83
2023-05-07T14:42:06.068Z,15.86
2023-05-07T14:44:41.983Z,15.83
2023-05-07T14:47:18.340Z,15.61
2023-05-07T14:49:54.412Z,15.33
2023-05-07T14:52:28.067Z,15.02
2023-05-07T14:55:01.580Z,14.81
2023-05-07T14:57:36.449Z,14.73
2023-05-07T15:00:12.610Z,14.73
2023-05-07T15:02:46.530Z,14.73
2023-05-07T15:05:21.280Z,14.70
2023-05-07T15:07:57.553Z,14.79
2023-05-07T15:10:31.582Z,14.92
2023-05-07T15:13:05.901Z,14.92
2023-05-07T15:15:39.650Z,14.91
2023-05-07T15:18:13.514Z,14.85
2023-05-07T15:20:47.601Z,14.80
2023-05-07T15:23:21.372Z,14.73
2023-05-07T15:25:56.453Z,14.66
2023-05-07T15:28:30.064Z,14.62
2023-05-07T15:31:04.674Z,14.60
2023-05-07T15:33:38.291Z,14.51
2023-05-07T15:36:12.699Z,14.40
2023-05-07T15:38:46.621Z,14.33
2023-05-07T15:41:21.822Z,14.26
2023-05-07T15:43:56.619Z,14.22
2023-05-07T15:46:30.304Z,14.21
2023-05-07T15:49:06.523Z,14.20
2023-05-07T15:51:40.413Z,14.18
2023-05-07T15:54:14.757Z,14.15
2023-05-07T15:56:48.804Z,14.12
2023-05-07T15:59:22.953Z,14.09
2023-05-07T16:01:56.533Z,14.07
2023-05-07T16:04:30.692Z,14.02
2023-05-07T16:07:04.295Z,13.97
2023-05-07T16:09:38.407Z,13.94
2023-05-07T16:12:12.216Z,13.89
2023-05-07T16:14:46.060Z,13.86
2023-05-07T16:17:19.748Z,13.87
2023-05-07T16:19:53.923Z,13.88
2023-05-07T16:22:29.741Z,13.86
2023-05-07T16:25:05.167Z,13.81
2023-05-07T16:27:39.098Z,13.83
2023-05-07T16:30:14.376Z,13.85
2023-05-07T16:32:48.089Z,13.83
2023-05-07T16:35:21.669Z,13.77
2023-05-07T16:37:55.366Z,13.70
2023-05-07T16:40:29.746Z,13.65
2023-05-07T16:43:04.320Z,13.60
2023-05-07T16:45:37.928Z,13.57
2023-05-07T16:48:12.365Z,13.52
2023-05-07T16:50:46.220Z,13.49
2023-05-07T16:53:20.828Z,13.47
2023-05-07T16:55:56.807Z,13.41
2023-05-07T16:58:30.647Z,13.34
2023-05-07T17:01:05.418Z,13.31
2023-05-07T17:03:39.280Z,13.31
2023-05-07T17:06:15.502Z,13.26
2023-05-07T17:08:48.856Z,13.23
2023-05-07T17:11:22.892Z,13.19
2023-05-07T17:13:56.622Z,13.17
2023-05-07T17:16:30.348Z,13.14
2023-05-07T17:19:04.560Z,13.10
2023-05-07T17:21:38.576Z,13.07
2023-05-07T17:24:12.707Z,13.02
2023-05-07T17:26:46.068Z,12.98
2023-05-07T17:29:20.298Z,12.94
2023-05-07T17:31:54.103Z,12.88
2023-05-07T17:34:27.761Z,12.79
2023-05-07T17:37:01.966Z,12.72
2023-05-07T17:39:35.506Z,12.65
2023-05-07T17:42:09.571Z,12.60
2023-05-07T17:44:43.531Z,12.56
2023-05-07T17:47:16.971Z,12.52
2023-05-07T17:49:50.612Z,12.46
2023-05-07T17:52:24.540Z,12.38
2023-05-07T17:54:58.320Z,12.28
2023-05-07T17:57:32.632Z,12.20
2023-05-07T18:00:10.394Z,12.14
2023-05-07T18:02:45.233Z,12.05
2023-05-07T18:05:20.273Z,11.95
2023-05-07T18:07:54.162Z,11.86
2023-05-07T18:10:27.964Z,11.79
2023-05-07T18:13:01.612Z,11.72
2023-05-07T18:15:35.445Z,11.65
2023-05-07T18:18:10.381Z,11.59
2023-05-07T18:20:44.093Z,11.52
2023-05-07T18:23:17.944Z,11.44
2023-05-07T18:25:51.931Z,11.38
2023-05-07T18:28:25.694Z,11.31
2023-05-07T18:30:59.444Z,11.24
2023-05-07T18:33:33.129Z,11.18
2023-05-07T18:36:07.458Z,11.13
2023-05-07T18:38:43.459Z,11.10
2023-05-07T18:41:18.846Z,11.05
2023-05-07T18:43:54.164Z,11.00
2023-05-07T18:46:30.634Z,10.96
2023-05-07T18:49:05.051Z,10.92
2023-05-07T18:51:39.438Z,10.88
2023-05-07T18:54:13.844Z,10.86
2023-05-07T18:56:48.959Z,10.83
2023-05-07T18:59:22.923Z,10.79
2023-05-07T19:01:57.667Z,10.75
2023-05-07T19:04:31.585Z,10.71
2023-05-07T19:07:06.956Z,10.66
2023-05-07T19:09:47.945Z,10.60
2023-05-07T19:12:25.586Z,10.54
2023-05-07T19:15:00.955Z,10.50
2023-05-07T19:17:35.869Z,10.45
2023-05-07T19:20:12.136Z,10.40
2023-05-07T19:22:47.273Z,10.36
2023-05-07T19:25:21.992Z,10.32
2023-05-07T19:27:57.017Z,10.28
2023-05-07T19:30:31.517Z,10.24
2023-05-07T19:33:05.683Z,10.21
2023-05-07T19:35:40.424Z,10.18
2023-05-07T19:38:14.450Z,10.14
2023-05-07T19:40:49.551Z,10.11
2023-05-07T19:43:23.971Z,10.09
2023-05-07T19:45:58.467Z,10.06
2023-05-07T19:48:34.150Z,10.03
2023-05-07T19:51:08.191Z,10.03
2023-05-07T19:53:43.432Z,10.03
2023-05-07T19:56:17.738Z,10.04
2023-05-07T19:58:53.376Z,10.04
2023-05-07T20:01:29.181Z,10.02
2023-05-07T20:04:03.279Z,10.00
2023-05-07T20:06:39.865Z,9.98
2023-05-07T20:09:14.470Z,9.92
2023-05-07T20:11:49.209Z,9.89
2023-05-07T20:14:22.977Z,9.86
2023-05-07T20:16:56.398Z,9.81
2023-05-07T20:19:30.234Z,9.76
2023-05-07T20:22:03.671Z,9.73
2023-05-07T20:24:41.309Z,9.69
2023-05-07T20:27:16.325Z,9.64
2023-05-07T20:29:50.167Z,9.60
2023-05-07T20:32:24.400Z,9.56
2023-05-07T20:34:58.002Z,9.54
2023-05-07T20:37:31.453Z,9.54
2023-05-07T20:40:05.447Z,9.55
2023-05-07T20:42:39.191Z,9.53
2023-05-07T20:45:14.532Z,9.51
2023-05-07T20:47:48.303Z,9.48
2023-05-07T20:50:23.709Z,9.46
2023-05-07T20:52:57.756Z,9.40
2023-05-07T20:55:31.858Z,9.34
2023-05-07T20:58:05.326Z,9.27
2023-05-07T21:00:39.694Z,9.23
2023-05-07T21:03:13.609Z,9.20
2023-05-07T21:05:52.174Z,9.18
2023-05-07T21:08:26.323Z,9.17
2023-05-07T21:10:59.918Z,9.17
2023-05-07T21:13:33.343Z,9.16
2023-05-07T21:16:07.562Z,9.15
2023-05-07T21:18:41.030Z,9.12
2023-05-07T21:21:16.769Z,9.10
2023-05-07T21:23:50.623Z,9.07
2023-05-07T21:26:24.398Z,9.04
2023-05-07T21:28:58.332Z,9.02
2023-05-07T21:31:31.964Z,8.97
2023-05-07T21:34:08.197Z,8.93
2023-05-07T21:36:42.161Z,8.90
2023-05-07T21:39:15.586Z,8.89
2023-05-07T21:41:49.366Z,8.89
2023-05-07T21:44:23.287Z,8.90
2023-05-07T21:46:57.116Z,8.89
2023-05-07T21:49:30.548Z,8.86
2023-05-07T21:52:03.699Z,8.82
2023-05-07T21:54:37.010Z,8.80
2023-05-07T21:57:10.805Z,8.78
2023-05-07T21:59:44.078Z,8.77
2023-05-07T22:02:17.256Z,8.75
2023-05-07T22:04:51.300Z,8.73
2023-05-07T22:07:27.362Z,8.73
2023-05-07T22:10:01.287Z,8.75
2023-05-07T22:12:35.695Z,8.75
2023-05-07T22:15:11.309Z,8.74
2023-05-07T22:17:45.183Z,8.71
2023-05-07T22:20:18.981Z,8.69
2023-05-07T22:22:54.330Z,8.67
2023-05-07T22:25:28.078Z,8.65
2023-05-07T22:28:02.240Z,8.63
2023-05-07T22:30:35.671Z,8.58
2023-05-07T22:33:08.975Z,8.53
2023-05-07T22:35:42.864Z,8.49
2023-05-07T22:38:16.555Z,8.48
2023-05-07T22:40:50.239Z,8.49
2023-05-07T22:43:23.838Z,8.49
2023-05-07T22:46:03.087Z,8.48
2023-05-07T22:48:36.715Z,8.47
2023-05-07T22:51:14.008Z,8.43
2023-05-07T22:53:48.069Z,8.41
2023-05-07T22:56:21.354Z,8.37
2023-05-07T22:58:55.030Z,8.31
2023-05-07T23:01:28.497Z,8.25
2023-05-07T23:04:02.228Z,8.22
2023-05-07T23:06:36.018Z,8.20
2023-05-07T23:09:10.071Z,8.20
2023-05-07T23:11:43.588Z,8.18
2023-05-07T23:14:17.177Z,8.17
2023-05-07T23:16:51.353Z,8.14
2023-05-07T23:19:25.108Z,8.10
2023-05-07T23:21:58.889Z,8.06
2023-05-07T23:24:32.300Z,8.00
2023-05-07T23:27:08.151Z,7.94
2023-05-07T23:29:41.587Z,7.89
2023-05-07T23:32:15.042Z,7.87
2023-05-07T23:34:50.866Z,7.87
2023-05-07T23:37:24.698Z,7.87
2023-05-07T23:39:58.697Z,7.86
2023-05-07T23:42:32.664Z,7.85
2023-05-07T23:45:07.255Z,7.83
2023-05-07T23:47:41.368Z,7.79
2023-05-07T23:50:15.554Z,7.76
2023-05-07T23:52:49.484Z,7.72
2023-05-07T23:55:23.135Z,7.68
2023-05-07T23:57:56.514Z,7.66
